createdAt,value
2023-10-17T00:01:42.420Z,4.72
2023-10-17T00:05:10.206Z,4.75
2023-10-17T00:08:38.003Z,4.77
2023-10-17T00:11:41.642Z,4.78
2023-10-17T00:14:50.777Z,4.77
2023-10-17T00:17:59.618Z,4.77
2023-10-17T00:21:27.253Z,4.77
2023-10-17T00:24:54.940Z,4.78
2023-10-17T00:28:23.110Z,4.79
2023-10-17T00:31:50.896Z,4.79
2023-10-17T00:35:00.591Z,4.81
2023-10-17T00:38:28.397Z,4.80
2023-10-17T00:41:56.359Z,4.78
2023-10-17T00:45:05.990Z,4.79
2023-10-17T00:48:15.893Z,4.81
2023-10-17T00:51:43.813Z,4.79
2023-10-17T00:55:11.569Z,4.77
2023-10-17T00:58:20.005Z,4.78
2023-10-17T01:01:48.084Z,4.79
2023-10-17T01:05:15.804Z,4.78
2023-10-17T01:08:43.593Z,4.79
2023-10-17T01:12:11.314Z,4.78
2023-10-17T01:15:38.971Z,4.75
2023-10-17T01:18:50.872Z,4.72
2023-10-17T01:22:19.714Z,4.70
2023-10-17T01:25:49.223Z,4.66
2023-10-17T01:28:40.053Z,4.65
2023-10-17T01:31:48.747Z,4.65
2023-10-17T01:34:42.301Z,4.63
2023-10-17T01:37:40.200Z,4.62
2023-10-17T01:41:07.836Z,4.60
2023-10-17T01:44:35.522Z,4.56
2023-10-17T01:48:03.271Z,4.50
2023-10-17T01:51:30.920Z,4.45
2023-10-17T01:54:58.657Z,4.42
2023-10-17T01:58:26.389Z,4.39
2023-10-17T02:01:42.418Z,4.35
2023-10-17T02:04:49.006Z,4.31
2023-10-17T02:07:57.788Z,4.29
2023-10-17T02:11:25.529Z,4.30
2023-10-17T02:14:53.264Z,4.29
2023-10-17T02:18:21.050Z,4.27
2023-10-17T02:21:48.895Z,4.25
2023-10-17T02:24:57.455Z,4.22
2023-10-17T02:28:25.441Z,4.18
2023-10-17T02:31:53.366Z,4.15
2023-10-17T02:35:21.186Z,4.13
2023-10-17T02:38:49.388Z,4.12
2023-10-17T02:42:17.110Z,4.14
2023-10-17T02:45:44.800Z,4.16
2023-10-17T02:49:12.585Z,4.19
2023-10-17T02:52:40.232Z,4.18
2023-10-17T02:56:07.920Z,4.19
2023-10-17T02:59:17.313Z,4.20
2023-10-17T03:02:45.040Z,4.20
2023-10-17T03:05:56.780Z,4.21
2023-10-17T03:09:24.747Z,4.21
2023-10-17T03:12:52.063Z,4.21
2023-10-17T03:16:20.110Z,4.21
2023-10-17T03:19:43.941Z,4.18
2023-10-17T03:23:11.996Z,4.17
2023-10-17T03:26:42.950Z,4.16
2023-10-17T03:29:20.921Z,4.16
2023-10-17T03:32:48.585Z,4.17
2023-10-17T03:36:00.165Z,4.18
2023-10-17T03:39:28.055Z,4.17
2023-10-17T03:42:17.260Z,4.18
2023-10-17T03:45:06.888Z,4.20
2023-10-17T03:48:15.734Z,4.21
2023-10-17T03:51:24.594Z,4.25
2023-10-17T03:54:52.290Z,4.25
2023-10-17T03:58:20.319Z,4.27
2023-10-17T04:01:47.993Z,4.27
2023-10-17T04:05:16.005Z,4.29
2023-10-17T04:08:02.062Z,4.29
2023-10-17T04:11:30.070Z,4.32
2023-10-17T04:14:57.731Z,4.34
2023-10-17T04:18:06.464Z,4.35
2023-10-17T04:21:34.086Z,4.35
2023-10-17T04:25:02.778Z,4.34
2023-10-17T04:27:31.410Z,4.33
2023-10-17T04:30:59.208Z,4.34
2023-10-17T04:33:30.355Z,4.34
2023-10-17T04:36:45.675Z,4.33
2023-10-17T04:39:54.605Z,4.34
2023-10-17T04:43:22.413Z,4.33
2023-10-17T04:46:50.491Z,4.34
2023-10-17T04:50:18.199Z,4.34
2023-10-17T04:53:07.510Z,4.32
2023-10-17T04:56:35.179Z,4.33
2023-10-17T05:00:03.003Z,4.34
2023-10-17T05:03:30.845Z,4.32
2023-10-17T05:06:58.384Z,4.31
2023-10-17T05:10:26.345Z,4.33
2023-10-17T05:13:54.005Z,4.36
2023-10-17T05:17:21.922Z,4.37
2023-10-17T05:20:49.583Z,4.38
2023-10-17T05:24:17.487Z,4.37
2023-10-17T05:27:25.776Z,4.38
2023-10-17T05:30:33.966Z,4.40
2023-10-17T05:33:42.039Z,4.44
2023-10-17T05:37:09.663Z,4.45
2023-10-17T05:39:59.328Z,4.48
2023-10-17T05:43:07.467Z,4.49
2023-10-17T05:46:35.163Z,4.54
2023-10-17T05:50:02.908Z,4.59
2023-10-17T05:53:30.776Z,4.65
2023-10-17T05:56:58.565Z,4.73
2023-10-17T06:00:26.415Z,4.79
2023-10-17T06:03:34.709Z,4.86
2023-10-17T06:07:03.568Z,4.93
2023-10-17T06:10:30.204Z,4.96
2023-10-17T06:13:57.931Z,4.98
2023-10-17T06:17:25.762Z,5.04
2023-10-17T06:20:53.922Z,5.13
2023-10-17T06:24:22.001Z,5.18
2023-10-17T06:27:49.846Z,5.20
2023-10-17T06:30:58.684Z,5.23
2023-10-17T06:34:26.308Z,5.29
2023-10-17T06:37:35.745Z,5.31
2023-10-17T06:41:03.566Z,5.38
2023-10-17T06:44:31.411Z,5.46
2023-10-17T06:47:59.165Z,5.52
2023-10-17T06:51:26.979Z,5.55
2023-10-17T06:54:54.571Z,5.66
2023-10-17T06:58:24.804Z,5.73
2023-10-17T07:01:50.306Z,5.71
2023-10-17T07:04:39.584Z,5.68
2023-10-17T07:08:07.258Z,5.66
2023-10-17T07:11:35.020Z,5.62
2023-10-17T07:15:03.233Z,5.61
2023-10-17T07:18:31.090Z,5.61
2023-10-17T07:21:58.746Z,5.63
2023-10-17T07:25:26.348Z,5.68
2023-10-17T07:28:34.638Z,5.73
2023-10-17T07:32:06.888Z,5.84
2023-10-17T07:35:35.979Z,5.97
2023-10-17T07:39:03.687Z,6.11
2023-10-17T07:42:31.636Z,6.23
2023-10-17T07:45:21.589Z,6.32
2023-10-17T07:48:30.445Z,6.46
2023-10-17T07:51:58.364Z,6.66
2023-10-17T07:55:26.315Z,6.85
2023-10-17T07:58:53.992Z,7.06
2023-10-17T08:02:22.017Z,7.24
2023-10-17T08:05:49.644Z,7.35
2023-10-17T08:08:59.554Z,7.48
2023-10-17T08:12:27.380Z,7.64
2023-10-17T08:15:55.457Z,7.88
2023-10-17T08:19:23.341Z,8.11
2023-10-17T08:22:12.452Z,8.26
2023-10-17T08:25:40.169Z,8.46
2023-10-17T08:29:08.049Z,8.65
2023-10-17T08:32:35.969Z,8.84
2023-10-17T08:36:03.759Z,9.02
2023-10-17T08:39:12.659Z,9.04
2023-10-17T08:42:40.826Z,9.17
2023-10-17T08:46:08.548Z,9.23
2023-10-17T08:49:36.501Z,9.22
2023-10-17T08:53:04.312Z,9.27
2023-10-17T08:56:32.029Z,9.38
2023-10-17T08:59:41.085Z,9.43
2023-10-17T09:03:08.991Z,9.52
2023-10-17T09:06:36.928Z,9.61
2023-10-17T09:10:04.741Z,9.75
2023-10-17T09:13:32.590Z,9.97
2023-10-17T09:17:00.235Z,10.16
2023-10-17T09:20:28.095Z,10.40
2023-10-17T09:23:36.798Z,10.59
2023-10-17T09:27:04.659Z,10.76
2023-10-17T09:30:32.440Z,10.88
2023-10-17T09:34:00.271Z,11.16
2023-10-17T09:37:09.714Z,11.39
2023-10-17T09:40:43.345Z,11.57
2023-10-17T09:44:05.299Z,11.82
2023-10-17T09:46:53.723Z,11.97
2023-10-17T09:50:21.623Z,12.27
2023-10-17T09:53:30.181Z,12.58
2023-10-17T09:56:19.847Z,12.71
2023-10-17T09:59:48.009Z,12.95
2023-10-17T10:03:16.188Z,13.15
2023-10-17T10:06:43.833Z,13.23
2023-10-17T10:09:52.688Z,13.31
2023-10-17T10:13:20.590Z,13.40
2023-10-17T10:16:48.563Z,13.59
2023-10-17T10:19:57.519Z,13.52
2023-10-17T10:23:29.246Z,13.48
2023-10-17T10:26:53.085Z,13.69
2023-10-17T10:30:20.835Z,13.90
2023-10-17T10:33:48.812Z,14.00
2023-10-17T10:37:16.901Z,14.04
2023-10-17T10:40:47.013Z,13.99
2023-10-17T10:43:55.343Z,14.13
2023-10-17T10:47:23.356Z,14.43
2023-10-17T10:50:32.348Z,14.78
2023-10-17T10:54:00.307Z,14.99
2023-10-17T10:57:09.184Z,15.04
2023-10-17T11:00:17.940Z,15.21
2023-10-17T11:03:21.215Z,15.55
2023-10-17T11:06:29.985Z,15.74
2023-10-17T11:09:57.644Z,15.76
2023-10-17T11:13:25.391Z,16.05
2023-10-17T11:16:53.841Z,16.25
2023-10-17T11:20:02.771Z,16.22
2023-10-17T11:23:11.599Z,16.28
2023-10-17T11:26:28.299Z,16.39
2023-10-17T11:29:28.999Z,16.50
2023-10-17T11:32:57.170Z,16.55
2023-10-17T11:36:25.429Z,16.56
2023-10-17T11:39:53.758Z,16.74
2023-10-17T11:43:21.579Z,16.66
2023-10-17T11:46:30.766Z,16.81
2023-10-17T11:49:38.878Z,16.96
2023-10-17T11:52:47.713Z,17.07
2023-10-17T11:55:52.149Z,17.08
2023-10-17T11:58:59.847Z,16.85
2023-10-17T12:01:30.262Z,16.59
2023-10-17T12:04:58.455Z,16.44
2023-10-17T12:08:02.277Z,16.53
2023-10-17T12:10:50.631Z,16.61
2023-10-17T12:13:56.049Z,16.68
2023-10-17T12:17:23.791Z,16.79
2023-10-17T12:20:28.093Z,16.91
2023-10-17T12:23:38.037Z,17.01
2023-10-17T12:26:46.331Z,17.02
2023-10-17T12:30:14.089Z,16.94
2023-10-17T12:33:41.835Z,17.02
2023-10-17T12:36:50.005Z,17.19
2023-10-17T12:39:57.801Z,17.28
2023-10-17T12:42:46.582Z,17.40
2023-10-17T12:45:54.746Z,17.47
2023-10-17T12:49:18.034Z,17.51
2023-10-17T12:52:22.354Z,17.51
2023-10-17T12:55:45.505Z,17.60
2023-10-17T12:58:55.340Z,17.83
2023-10-17T13:01:46.296Z,17.96
2023-10-17T13:04:35.852Z,18.21
2023-10-17T13:07:25.259Z,18.68
2023-10-17T13:10:52.922Z,18.86
2023-10-17T13:14:01.920Z,19.12
2023-10-17T13:17:29.952Z,19.39
2023-10-17T13:20:35.813Z,19.55
2023-10-17T13:23:49.606Z,19.79
2023-10-17T13:27:05.920Z,19.70
2023-10-17T13:30:26.151Z,19.94
2023-10-17T13:33:38.337Z,20.39
2023-10-17T13:36:37.389Z,20.67
2023-10-17T13:39:52.713Z,20.73
2023-10-17T13:42:46.253Z,20.99
2023-10-17T13:45:41.760Z,20.94
2023-10-17T13:48:31.128Z,20.80
2023-10-17T13:51:58.890Z,20.59
2023-10-17T13:54:46.330Z,20.46
2023-10-17T13:57:22.801Z,20.44
2023-10-17T14:00:16.436Z,20.13
2023-10-17T14:03:25.822Z,19.86
2023-10-17T14:06:14.853Z,19.44
2023-10-17T14:09:22.970Z,19.01
2023-10-17T14:12:45.919Z,18.74
2023-10-17T14:15:54.790Z,18.57
2023-10-17T14:19:17.584Z,18.22
2023-10-17T14:22:14.714Z,18.04
2023-10-17T14:25:18.637Z,18.05
2023-10-17T14:28:42.043Z,18.00
2023-10-17T14:32:09.941Z,17.85
2023-10-17T14:34:59.765Z,17.77
2023-10-17T14:38:29.360Z,17.72
2023-10-17T14:41:39.413Z,18.31
2023-10-17T14:45:08.257Z,19.11
2023-10-17T14:48:36.502Z,19.22
2023-10-17T14:52:04.501Z,19.00
2023-10-17T14:54:55.792Z,18.70
2023-10-17T14:58:05.436Z,18.28
2023-10-17T15:01:17.113Z,17.81
2023-10-17T15:04:37.175Z,17.36
2023-10-17T15:08:05.350Z,17.13
2023-10-17T15:11:33.361Z,16.94
2023-10-17T15:15:01.460Z,16.72
2023-10-17T15:17:59.318Z,16.48
2023-10-17T15:20:29.044Z,16.25
2023-10-17T15:23:56.796Z,16.09
2023-10-17T15:27:25.167Z,15.95
2023-10-17T15:30:53.052Z,15.79
2023-10-17T15:34:00.901Z,15.57
2023-10-17T15:37:16.805Z,15.31
2023-10-17T15:40:25.697Z,15.02
2023-10-17T15:43:53.387Z,14.81
2023-10-17T15:47:16.683Z,14.64
2023-10-17T15:50:44.373Z,14.53
2023-10-17T15:54:12.216Z,14.35
2023-10-17T15:57:39.882Z,14.06
2023-10-17T16:00:48.688Z,13.90
2023-10-17T16:03:58.005Z,13.80
2023-10-17T16:07:05.945Z,13.72
2023-10-17T16:10:15.754Z,13.62
2023-10-17T16:13:07.504Z,13.49
2023-10-17T16:16:17.601Z,13.30
2023-10-17T16:19:25.552Z,13.10
2023-10-17T16:22:53.718Z,12.98
2023-10-17T16:26:21.442Z,12.86
2023-10-17T16:29:10.422Z,12.79
2023-10-17T16:32:18.283Z,12.75
2023-10-17T16:35:26.613Z,12.73
2023-10-17T16:38:16.754Z,12.72
2023-10-17T16:41:44.667Z,12.47
2023-10-17T16:44:42.048Z,12.22
2023-10-17T16:48:09.638Z,12.03
2023-10-17T16:51:37.574Z,11.89
2023-10-17T16:54:25.648Z,11.83
2023-10-17T16:57:56.711Z,11.83
2023-10-17T17:00:46.311Z,11.83
2023-10-17T17:03:54.901Z,11.85
2023-10-17T17:07:22.709Z,11.84
2023-10-17T17:10:34.524Z,11.84
2023-10-17T17:13:44.340Z,11.85
2023-10-17T17:17:15.852Z,11.82
2023-10-17T17:20:24.568Z,11.76
2023-10-17T17:23:34.551Z,11.72
2023-10-17T17:26:46.032Z,11.66
2023-10-17T17:30:02.013Z,11.61
2023-10-17T17:33:16.118Z,11.56
2023-10-17T17:36:31.475Z,11.55
2023-10-17T17:39:46.711Z,11.56
2023-10-17T17:43:14.316Z,11.44
2023-10-17T17:46:38.093Z,11.28
2023-10-17T17:49:28.589Z,11.10
2023-10-17T17:52:56.028Z,10.97
2023-10-17T17:56:24.125Z,10.88
2023-10-17T17:59:40.163Z,10.82
2023-10-17T18:03:10.612Z,10.75
2023-10-17T18:06:42.471Z,10.72
2023-10-17T18:09:52.342Z,10.68
2023-10-17T18:12:56.356Z,10.65
2023-10-17T18:15:46.150Z,10.63
2023-10-17T18:18:43.108Z,10.54
2023-10-17T18:22:14.103Z,10.40
2023-10-17T18:25:23.057Z,10.28
2023-10-17T18:28:31.984Z,10.20
2023-10-17T18:31:30.948Z,10.16
2023-10-17T18:34:20.598Z,10.13
2023-10-17T18:37:11.536Z,10.08
2023-10-17T18:40:39.393Z,9.99
2023-10-17T18:43:51.387Z,9.92
2023-10-17T18:47:19.162Z,9.83
2023-10-17T18:50:28.000Z,9.75
2023-10-17T18:53:51.709Z,9.67
2023-10-17T18:57:19.593Z,9.60
2023-10-17T19:00:43.355Z,9.56
2023-10-17T19:03:57.746Z,9.53
2023-10-17T19:07:08.829Z,9.51
2023-10-17T19:10:39.275Z,9.48
2023-10-17T19:13:57.171Z,9.44
2023-10-17T19:17:07.373Z,9.41
2023-10-17T19:19:45.984Z,9.39
2023-10-17T19:22:57.634Z,9.37
2023-10-17T19:26:13.216Z,9.36
2023-10-17T19:29:23.164Z,9.36
2023-10-17T19:32:47.197Z,9.39
2023-10-17T19:35:44.318Z,9.42
2023-10-17T19:39:11.999Z,9.37
2023-10-17T19:42:39.955Z,9.34
2023-10-17T19:46:07.731Z,9.30
2023-10-17T19:49:36.054Z,9.26
2023-10-17T19:53:03.903Z,9.24
2023-10-17T19:56:09.781Z,9.22
2023-10-17T19:59:37.520Z,9.20
2023-10-17T20:02:47.667Z,9.18
2023-10-17T20:05:56.301Z,9.15
2023-10-17T20:09:23.942Z,9.11
2023-10-17T20:12:13.386Z,9.09
2023-10-17T20:15:41.115Z,9.06
2023-10-17T20:18:30.972Z,9.05
2023-10-17T20:21:43.420Z,9.04
2023-10-17T20:24:52.124Z,9.05
2023-10-17T20:27:57.042Z,9.05
2023-10-17T20:31:26.413Z,9.07
2023-10-17T20:34:27.100Z,9.10
2023-10-17T20:37:04.197Z,9.12
2023-10-17T20:40:14.656Z,9.12
2023-10-17T20:42:49.227Z,9.12
2023-10-17T20:45:58.857Z,9.19
2023-10-17T20:48:28.466Z,9.24
2023-10-17T20:51:38.493Z,9.29
2023-10-17T20:54:50.176Z,9.41
2023-10-17T20:57:39.565Z,9.50
2023-10-17T21:01:07.270Z,9.55
2023-10-17T21:04:35.207Z,9.58
2023-10-17T21:07:58.750Z,9.56
2023-10-17T21:11:08.582Z,9.49
2023-10-17T21:14:20.891Z,9.42
2023-10-17T21:17:28.502Z,9.38
2023-10-17T21:20:53.585Z,9.38
2023-10-17T21:23:57.833Z,9.38
2023-10-17T21:27:09.383Z,9.37
2023-10-17T21:30:18.076Z,9.36
2023-10-17T21:33:45.905Z,9.36
2023-10-17T21:37:13.588Z,9.38
2023-10-17T21:39:46.819Z,9.39
2023-10-17T21:42:51.763Z,9.38
2023-10-17T21:46:19.499Z,9.42
2023-10-17T21:49:47.309Z,9.42
2023-10-17T21:52:57.202Z,9.41
2023-10-17T21:55:48.085Z,9.38
2023-10-17T21:58:39.115Z,9.33
2023-10-17T22:01:42.412Z,9.24
2023-10-17T22:05:10.186Z,9.14
2023-10-17T22:08:37.945Z,9.10
2023-10-17T22:12:05.591Z,9.07
2023-10-17T22:15:33.321Z,8.99
2023-10-17T22:19:00.966Z,8.89
2023-10-17T22:22:09.715Z,8.80
2023-10-17T22:25:37.429Z,8.72
2023-10-17T22:29:05.586Z,8.65
2023-10-17T22:31:54.957Z,8.61
2023-10-17T22:34:48.594Z,8.57
2023-10-17T22:38:12.171Z,8.54
2023-10-17T22:41:28.469Z,8.50
2023-10-17T22:44:37.362Z,8.47
2023-10-17T22:47:47.151Z,8.43
2023-10-17T22:51:14.894Z,8.37
2023-10-17T22:54:22.038Z,8.33
2023-10-17T22:57:49.870Z,8.25
2023-10-17T23:01:17.796Z,8.19
2023-10-17T23:04:45.552Z,8.13
2023-10-17T23:08:13.367Z,8.11
2023-10-17T23:11:41.246Z,8.04
2023-10-17T23:15:09.253Z,7.94
2023-10-17T23:17:58.089Z,7.83
2023-10-17T23:21:06.192Z,7.70
2023-10-17T23:24:34.124Z,7.59
2023-10-17T23:28:02.094Z,7.45
2023-10-17T23:31:29.970Z,7.34
2023-10-17T23:34:57.754Z,7.24
2023-10-17T23:38:04.457Z,7.15
2023-10-17T23:41:14.084Z,7.09
2023-10-17T23:44:04.958Z,7.03
2023-10-17T23:47:33.727Z,6.96
2023-10-17T23:51:01.504Z,6.94
2023-10-17T23:53:46.417Z,6.93
2023-10-17T23:56:38.976Z,6.90
2023-10-17T23:59:44.392Z,6.88
